createdAt,value
2022-08-09T00:00:48.029Z,75.08
2022-08-09T00:01:54.623Z,75.22
2022-08-09T00:02:50.028Z,75.52
2022-08-09T00:04:05.590Z,75.62
2022-08-09T00:05:03.664Z,76.33
2022-08-09T00:06:19.202Z,75.82
2022-08-09T00:06:47.991Z,76.33
2022-08-09T00:07:46.986Z,75.82
2022-08-09T00:08:46.967Z,76.94
2022-08-09T00:09:46.959Z,76.03
2022-08-09T00:11:24.488Z,76.64
2022-08-09T00:12:15.609Z,77.08
2022-08-09T00:12:51.740Z,76.87
2022-08-09T00:13:46.947Z,77.59
2022-08-09T00:14:47.478Z,77.08
2022-08-09T00:15:59.249Z,77.32
2022-08-09T00:16:47.927Z,77.38
2022-08-09T00:18:05.798Z,77.42
2022-08-09T00:18:47.887Z,77.62
2022-08-09T00:19:48.032Z,77.38
2022-08-09T00:20:50.001Z,77.62
2022-08-09T00:21:56.066Z,77.42
2022-08-09T00:22:47.862Z,77.22
2022-08-09T00:23:57.792Z,77.38
2022-08-09T00:24:47.858Z,77.42
2022-08-09T00:25:46.858Z,77.83
2022-08-09T00:26:47.828Z,77.72
2022-08-09T00:27:47.967Z,77.83
2022-08-09T00:28:52.662Z,77.83
2022-08-09T00:30:24.464Z,77.83
2022-08-09T00:30:47.786Z,77.62
2022-08-09T00:31:58.748Z,77.62
2022-08-09T00:32:47.775Z,77.72
2022-08-09T00:33:50.785Z,77.93
2022-08-09T00:34:52.324Z,77.62
2022-08-09T00:35:47.943Z,77.72
2022-08-09T00:36:46.748Z,77.62
2022-08-09T00:37:46.735Z,77.52
2022-08-09T00:38:46.843Z,78.44
2022-08-09T00:40:12.873Z,78.53
2022-08-09T00:40:52.657Z,78.33
2022-08-09T00:44:11.079Z,78.53
2022-08-09T00:44:11.823Z,78.53
2022-08-09T00:44:13.329Z,78.53
2022-08-09T00:44:47.673Z,78.03
2022-08-09T00:45:50.504Z,78.57
2022-08-09T00:46:57.844Z,78.27
2022-08-09T00:47:47.646Z,78.57
2022-08-09T00:48:47.600Z,78.67
2022-08-09T00:49:55.108Z,78.78
2022-08-09T00:50:47.644Z,79.08
2022-08-09T00:51:55.882Z,78.67
2022-08-09T00:52:47.605Z,78.67
2022-08-09T00:53:46.638Z,78.78
2022-08-09T00:54:46.610Z,78.47
2022-08-09T00:56:04.775Z,79.08
2022-08-09T00:56:47.606Z,79.28
2022-08-09T00:57:49.784Z,79.49
2022-08-09T00:58:48.990Z,79.93
2022-08-09T00:59:52.666Z,79.93
2022-08-09T01:00:47.788Z,79.63
2022-08-09T01:01:46.617Z,80.13
2022-08-09T01:02:46.545Z,80.30
2022-08-09T01:03:46.809Z,80.24
2022-08-09T01:04:46.550Z,79.83
2022-08-09T01:05:53.569Z,79.79
2022-08-09T01:06:54.347Z,78.67
2022-08-09T01:08:01.154Z,80.13
2022-08-09T01:08:49.400Z,80.13
2022-08-09T01:09:46.828Z,79.83
2022-08-09T01:10:46.468Z,80.03
2022-08-09T01:11:53.145Z,79.72
2022-08-09T01:12:47.471Z,79.83
2022-08-09T01:13:59.001Z,79.99
2022-08-09T01:14:48.066Z,79.83
2022-08-09T01:15:51.662Z,79.93
2022-08-09T01:16:49.299Z,79.83
2022-08-09T01:17:46.456Z,80.33
2022-08-09T01:18:47.636Z,80.13
2022-08-09T01:19:57.134Z,80.27
2022-08-09T01:20:47.450Z,80.13
2022-08-09T01:21:51.253Z,80.44
2022-08-09T01:22:48.193Z,80.27
2022-08-09T01:24:02.294Z,80.37
2022-08-09T01:24:50.366Z,80.13
2022-08-09T01:25:48.897Z,80.33
2022-08-09T01:26:52.989Z,80.03
2022-08-09T01:27:47.400Z,80.33
2022-08-09T01:28:46.337Z,79.79
2022-08-09T01:29:55.800Z,78.98
2022-08-09T01:30:52.104Z,78.33
2022-08-09T01:32:30.335Z,78.30
2022-08-09T01:32:47.376Z,77.69
2022-08-09T01:33:46.321Z,77.59
2022-08-09T01:34:46.342Z,77.48
2022-08-09T01:35:46.469Z,77.48
2022-08-09T01:36:47.293Z,77.48
2022-08-09T01:38:07.748Z,77.18
2022-08-09T01:38:47.301Z,77.48
2022-08-09T01:39:46.379Z,77.38
2022-08-09T01:40:53.019Z,77.38
2022-08-09T01:41:53.585Z,77.48
2022-08-09T01:42:48.291Z,77.38
2022-08-09T01:43:50.925Z,77.69
2022-08-09T01:44:47.243Z,77.48
2022-08-09T02:02:45.932Z,77.48
2022-08-09T02:03:46.702Z,77.79
2022-08-09T02:04:46.778Z,77.79
2022-08-09T02:05:53.513Z,78.40
2022-08-09T02:06:58.397Z,77.69
2022-08-09T02:08:41.402Z,77.42
2022-08-09T02:08:58.008Z,77.72
2022-08-09T02:09:59.403Z,78.53
2022-08-09T02:17:00.080Z,81.33
2022-08-09T02:18:01.120Z,81.23
2022-08-09T02:18:49.445Z,81.33
2022-08-09T02:19:48.449Z,81.02
2022-08-09T02:20:48.470Z,82.04
2022-08-09T02:21:48.428Z,81.84
2022-08-09T02:22:49.420Z,82.45
2022-08-09T02:23:48.412Z,81.93
2022-08-09T02:24:51.777Z,81.39
2022-08-09T02:25:55.645Z,80.88
2022-08-09T02:26:50.683Z,81.09
2022-08-09T02:28:00.568Z,80.98
2022-08-09T02:28:50.614Z,80.74
2022-08-09T02:29:50.634Z,80.88
2022-08-09T02:30:49.596Z,80.88
2022-08-09T02:32:59.971Z,80.68
2022-08-09T02:34:12.960Z,81.09
2022-08-09T02:35:01.468Z,80.92
2022-08-09T02:36:04.293Z,81.23
2022-08-09T02:37:00.452Z,81.33
2022-08-09T02:38:00.457Z,81.84
2022-08-09T02:39:00.418Z,82.14
2022-08-09T02:40:01.859Z,82.10
2022-08-09T02:41:03.058Z,80.98
2022-08-09T02:42:00.535Z,80.94
2022-08-09T02:43:01.414Z,80.54
2022-08-09T02:44:01.080Z,80.13
2022-08-09T02:45:01.412Z,79.90
2022-08-09T02:46:00.416Z,80.19
2022-08-09T02:47:00.367Z,80.24
2022-08-09T02:48:00.343Z,79.99
2022-08-09T02:49:01.549Z,80.40
2022-08-09T02:50:01.869Z,79.90
2022-08-09T02:51:02.698Z,79.99
2022-08-09T02:52:00.316Z,80.30
2022-08-09T02:53:00.344Z,79.59
2022-08-09T02:54:01.450Z,79.59
2022-08-09T02:55:00.299Z,79.90
2022-08-09T02:56:01.151Z,80.44
2022-08-09T02:57:00.332Z,79.79
2022-08-09T02:58:35.337Z,80.13
2022-08-09T02:59:01.277Z,80.03
2022-08-09T03:00:21.079Z,80.24
2022-08-09T03:01:04.261Z,80.54
2022-08-09T03:02:06.622Z,80.84
2022-08-09T03:03:01.291Z,80.84
2022-08-09T03:04:16.963Z,81.05
2022-08-09T03:05:01.225Z,80.44
2022-08-09T03:06:00.213Z,80.64
2022-08-09T03:07:14.346Z,80.78
2022-08-09T03:08:01.219Z,80.84
2022-08-09T03:09:00.191Z,80.54
2022-08-09T03:10:00.664Z,80.84
2022-08-09T03:11:00.270Z,80.78
2022-08-09T03:12:05.765Z,81.15
2022-08-09T03:13:01.153Z,81.25
2022-08-09T03:14:01.791Z,80.88
2022-08-09T03:15:00.145Z,82.10
2022-08-09T03:16:06.847Z,81.19
2022-08-09T03:17:02.157Z,81.29
2022-08-09T03:18:00.124Z,82.00
2022-08-09T03:19:01.787Z,82.20
2022-08-09T03:20:05.272Z,81.90
2022-08-09T03:21:01.098Z,82.20
2022-08-09T03:22:03.119Z,82.00
2022-08-09T03:23:00.457Z,81.70
2022-08-09T03:24:04.022Z,82.00
2022-08-09T03:25:06.002Z,81.49
2022-08-09T03:26:03.630Z,81.90
2022-08-09T03:27:00.089Z,81.70
2022-08-09T03:28:00.573Z,81.79
2022-08-09T03:29:00.041Z,82.45
2022-08-09T03:30:01.272Z,81.90
2022-08-09T03:31:00.051Z,82.24
2022-08-09T03:32:01.036Z,82.14
2022-08-09T03:33:00.108Z,81.93
2022-08-09T03:34:00.022Z,82.14
2022-08-09T03:34:59.995Z,82.54
2022-08-09T03:36:13.347Z,82.34
2022-08-09T03:37:02.413Z,82.85
2022-08-09T03:38:00.990Z,82.45
2022-08-09T03:39:00.626Z,82.34
2022-08-09T03:40:00.043Z,82.65
2022-08-09T03:41:02.819Z,82.54
2022-08-09T03:42:06.044Z,82.45
2022-08-09T03:43:00.927Z,82.54
2022-08-09T03:44:08.163Z,82.04
2022-08-09T03:45:00.926Z,82.34
2022-08-09T03:46:04.984Z,82.54
2022-08-09T04:01:51.278Z,83.60
2022-08-09T04:02:52.681Z,83.70
2022-08-09T04:04:01.508Z,83.60
2022-08-09T04:04:52.288Z,83.20
2022-08-09T04:05:51.248Z,83.20
2022-08-09T04:06:52.366Z,82.89
2022-08-09T04:07:57.686Z,82.99
2022-08-09T04:08:53.467Z,83.15
2022-08-09T04:09:52.957Z,83.26
2022-08-09T04:10:52.373Z,83.26
2022-08-09T04:11:52.340Z,83.15
2022-08-09T04:12:52.368Z,83.06
2022-08-09T04:14:53.835Z,82.75
2022-08-09T04:15:01.447Z,82.95
2022-08-09T04:16:20.059Z,82.95
2022-08-09T04:16:53.337Z,82.95
2022-08-09T04:17:52.316Z,82.95
2022-08-09T04:18:53.302Z,83.15
2022-08-09T04:19:56.177Z,83.26
2022-08-09T04:20:52.328Z,83.36
2022-08-09T04:21:52.264Z,83.46
2022-08-09T04:22:52.260Z,83.60
2022-08-09T04:23:53.625Z,83.36
2022-08-09T04:24:53.868Z,83.67
2022-08-09T04:25:53.057Z,83.60
2022-08-09T04:26:52.231Z,83.46
2022-08-09T04:27:52.222Z,83.26
2022-08-09T04:28:55.056Z,83.01
2022-08-09T04:29:53.263Z,82.26
2022-08-09T04:30:52.186Z,81.92
2022-08-09T04:31:52.170Z,80.97
2022-08-09T04:32:54.154Z,80.16
2022-08-09T04:33:56.960Z,80.12
2022-08-09T04:34:54.440Z,78.80
2022-08-09T04:35:52.173Z,78.46
2022-08-09T04:36:52.146Z,78.53
2022-08-09T04:37:52.138Z,76.97
2022-08-09T04:38:52.216Z,76.73
2022-08-09T04:39:52.141Z,76.12
2022-08-09T04:40:56.341Z,76.12
2022-08-09T04:41:53.114Z,75.38
2022-08-09T04:42:52.103Z,75.04
2022-08-09T04:44:05.253Z,74.98
2022-08-09T04:44:53.125Z,75.07
2022-08-09T04:45:54.203Z,74.84
2022-08-09T04:46:59.089Z,73.79
2022-08-09T04:47:58.828Z,73.69
2022-08-09T04:48:57.662Z,73.35
2022-08-09T04:49:54.445Z,73.15
2022-08-09T04:50:52.034Z,73.15
2022-08-09T04:51:52.045Z,73.35
2022-08-09T04:52:52.057Z,73.05
2022-08-09T04:53:54.264Z,73.15
2022-08-09T04:54:54.022Z,72.71
2022-08-09T04:55:57.950Z,72.27
2022-08-09T04:56:53.001Z,71.77
2022-08-09T04:57:59.449Z,71.67
2022-08-09T04:58:53.003Z,71.97
2022-08-09T04:59:51.965Z,71.91
2022-08-09T05:00:54.314Z,71.80
2022-08-09T05:01:51.955Z,71.57
2022-08-09T05:02:53.060Z,71.13
2022-08-09T05:03:58.487Z,71.03
2022-08-09T05:04:55.713Z,71.33
2022-08-09T05:06:07.030Z,69.95
2022-08-09T05:06:54.894Z,69.32
2022-08-09T05:07:53.334Z,68.91
2022-08-09T05:08:52.912Z,69.45
2022-08-09T05:09:52.917Z,69.12
2022-08-09T05:10:52.874Z,69.09
2022-08-09T05:11:51.899Z,68.81
2022-08-09T05:12:51.887Z,68.48
2022-08-09T05:13:51.904Z,68.18
2022-08-09T05:14:51.866Z,67.34
2022-08-09T05:15:52.321Z,67.84
2022-08-09T05:16:58.872Z,67.41
2022-08-09T05:18:42.487Z,67.18
2022-08-09T05:18:57.946Z,65.53
2022-08-09T05:19:56.651Z,65.73
2022-08-09T05:20:51.786Z,65.77
2022-08-09T05:21:55.903Z,67.18
2022-08-09T05:23:55.166Z,66.24
2022-08-09T05:23:59.524Z,66.27
2022-08-09T05:24:52.788Z,65.53
2022-08-09T05:25:51.775Z,65.03
2022-08-09T05:26:51.758Z,66.03
2022-08-09T05:27:51.751Z,65.64
2022-08-09T05:28:52.049Z,64.97
2022-08-09T05:29:51.774Z,64.27
2022-08-09T05:30:51.813Z,64.04
2022-08-09T05:31:58.421Z,63.43
2022-08-09T05:32:53.765Z,64.37
2022-08-09T05:33:51.705Z,65.00
2022-08-09T05:34:51.822Z,64.17
2022-08-09T05:35:51.702Z,63.40
2022-08-09T05:36:51.730Z,62.87
2022-08-09T05:37:52.406Z,63.50
2022-08-09T05:38:51.666Z,63.17
2022-08-09T05:39:51.733Z,63.60
2022-08-09T05:40:51.671Z,62.54
2022-08-09T05:41:51.653Z,62.34
2022-08-09T05:42:51.651Z,62.44
2022-08-09T05:43:51.662Z,62.90
2022-08-09T05:44:52.122Z,63.43
2022-08-09T05:45:55.602Z,63.93
2022-08-09T05:46:52.649Z,63.17
2022-08-09T05:47:54.300Z,62.67
2022-08-09T05:48:58.872Z,62.57
2022-08-09T05:50:26.838Z,62.70
2022-08-09T05:51:12.014Z,63.93
2022-08-09T05:51:53.566Z,64.17
2022-08-09T05:52:54.156Z,64.24
2022-08-09T05:53:57.574Z,64.10
2022-08-09T05:54:52.543Z,64.57
2022-08-09T05:55:53.160Z,65.30
2022-08-09T05:56:54.887Z,65.07
2022-08-09T05:57:56.981Z,64.24
2022-08-09T05:58:58.316Z,63.87
2022-08-09T05:59:53.334Z,62.84
2022-08-09T06:00:51.506Z,62.37
2022-08-09T06:01:51.519Z,63.50
2022-08-09T06:02:54.180Z,64.64
2022-08-09T06:03:54.691Z,64.64
2022-08-09T06:04:52.475Z,64.57
2022-08-09T06:06:04.366Z,64.54
2022-08-09T06:06:52.489Z,63.70
2022-08-09T06:08:07.834Z,64.40
2022-08-09T06:08:52.890Z,63.70
2022-08-09T06:10:02.123Z,63.70
2022-08-09T06:10:52.434Z,63.81
2022-08-09T06:11:56.796Z,63.78
2022-08-09T06:13:03.128Z,63.90
2022-08-09T06:13:52.409Z,63.67
2022-08-09T06:14:51.394Z,63.90
2022-08-09T06:15:52.286Z,63.81
2022-08-09T06:16:52.214Z,64.24
2022-08-09T06:17:51.410Z,64.37
2022-08-09T06:18:51.422Z,64.24
2022-08-09T06:19:51.357Z,63.70
2022-08-09T06:20:54.622Z,63.84
2022-08-09T06:21:58.738Z,63.37
2022-08-09T06:22:52.481Z,63.04
2022-08-09T06:23:57.135Z,62.41
2022-08-09T06:24:52.377Z,61.12
2022-08-09T06:25:55.364Z,60.15
2022-08-09T06:26:51.304Z,62.01
2022-08-09T06:27:51.804Z,61.91
2022-08-09T06:28:59.986Z,61.81
2022-08-09T06:30:04.587Z,62.01
2022-08-09T06:30:52.272Z,62.01
2022-08-09T06:32:17.281Z,61.48
2022-08-09T06:33:13.162Z,60.68
2022-08-09T06:33:53.226Z,60.95
2022-08-09T06:34:53.157Z,61.08
2022-08-09T06:35:56.953Z,60.28
2022-08-09T06:36:57.233Z,61.48
2022-08-09T06:38:05.405Z,60.22
2022-08-09T06:38:52.930Z,60.22
2022-08-09T06:39:59.899Z,60.25
2022-08-09T06:40:54.815Z,60.69
2022-08-09T06:42:09.352Z,60.49
2022-08-09T06:42:52.176Z,60.69
2022-08-09T06:43:51.157Z,60.19
2022-08-09T06:44:54.012Z,60.49
2022-08-09T06:46:04.798Z,60.32
2022-08-09T06:46:55.226Z,60.10
2022-08-09T06:48:00.659Z,59.97
2022-08-09T06:48:52.163Z,59.39
2022-08-09T06:50:13.335Z,59.47
2022-08-09T06:50:52.136Z,59.14
2022-08-09T06:51:51.114Z,58.41
2022-08-09T06:52:51.103Z,58.54
2022-08-09T06:53:51.116Z,58.94
2022-08-09T06:54:51.124Z,58.51
2022-08-09T06:55:51.078Z,58.36
2022-08-09T06:56:51.557Z,57.26
2022-08-09T06:58:03.288Z,56.53
2022-08-09T07:00:50.319Z,57.13
2022-08-09T07:00:54.310Z,56.21
2022-08-09T07:00:58.765Z,56.93
2022-08-09T07:01:54.211Z,56.43
2022-08-09T07:02:52.107Z,56.43
2022-08-09T07:03:56.615Z,55.80
2022-08-09T07:04:53.873Z,56.63
2022-08-09T07:05:58.387Z,56.18
2022-08-09T07:06:53.496Z,55.08
2022-08-09T07:08:00.116Z,54.88
2022-08-09T07:08:52.946Z,55.51
2022-08-09T07:09:55.438Z,55.98
2022-08-09T07:10:53.440Z,54.83
2022-08-09T07:11:53.476Z,54.33
2022-08-09T07:12:57.608Z,54.21
2022-08-09T07:14:05.432Z,53.81
2022-08-09T07:14:53.432Z,53.64
2022-08-09T07:16:36.393Z,54.24
2022-08-09T07:16:57.612Z,53.91
2022-08-09T07:17:56.385Z,53.88
2022-08-09T07:18:51.935Z,52.37
2022-08-09T07:19:55.482Z,52.34
2022-08-09T07:20:52.897Z,52.14
2022-08-09T07:21:55.750Z,51.89
2022-08-09T07:22:52.943Z,51.10
2022-08-09T07:23:57.677Z,51.84
2022-08-09T07:24:52.018Z,53.61
2022-08-09T07:25:52.564Z,53.46
2022-08-09T07:26:51.841Z,52.39
2022-08-09T07:27:53.330Z,52.64
2022-08-09T07:29:08.224Z,52.74
2022-08-09T07:29:52.508Z,52.96
2022-08-09T07:30:50.832Z,52.67
2022-08-09T07:31:50.839Z,52.56
2022-08-09T07:32:51.684Z,51.92
2022-08-09T07:33:53.106Z,52.00
2022-08-09T07:34:52.317Z,51.72
2022-08-09T07:35:54.080Z,52.76
2022-08-09T07:36:50.803Z,51.75
2022-08-09T07:37:51.449Z,52.02
2022-08-09T07:39:00.561Z,52.17
2022-08-09T07:39:52.828Z,52.54
2022-08-09T07:41:08.150Z,51.54
2022-08-09T07:41:53.813Z,52.44
2022-08-09T07:42:50.767Z,51.92
2022-08-09T07:43:55.830Z,50.70
2022-08-09T07:44:56.259Z,51.72
2022-08-09T07:45:51.733Z,49.81
2022-08-09T07:46:52.350Z,49.76
2022-08-09T07:48:00.797Z,49.91
2022-08-09T07:48:58.906Z,48.92
2022-08-09T07:50:04.736Z,49.69
2022-08-09T07:50:53.082Z,49.96
2022-08-09T07:52:04.682Z,49.34
2022-08-09T07:52:51.685Z,49.88
2022-08-09T07:54:07.073Z,49.99
2022-08-09T07:54:51.794Z,50.06
2022-08-09T07:56:03.559Z,50.53
2022-08-09T07:56:51.611Z,50.21
2022-08-09T07:57:50.617Z,49.91
2022-08-09T07:58:50.659Z,49.74
2022-08-09T07:59:51.933Z,48.01
2022-08-09T08:00:56.181Z,48.63
2022-08-09T08:01:53.257Z,49.10
2022-08-09T08:02:50.580Z,49.02
2022-08-09T08:03:50.592Z,49.32
2022-08-09T08:04:53.694Z,48.33
2022-08-09T08:05:54.256Z,48.01
2022-08-09T08:06:55.953Z,47.83
2022-08-09T08:08:42.802Z,48.30
2022-08-09T08:09:03.512Z,48.08
2022-08-09T08:09:55.199Z,47.44
2022-08-09T08:11:03.189Z,47.99
2022-08-09T08:12:10.511Z,48.11
2022-08-09T08:12:52.399Z,48.33
2022-08-09T08:13:57.232Z,48.75
2022-08-09T08:14:51.545Z,48.30
2022-08-09T08:15:50.493Z,47.81
2022-08-09T08:16:51.068Z,49.17
2022-08-09T08:17:54.705Z,48.25
2022-08-09T08:18:51.484Z,48.33
2022-08-09T08:19:51.957Z,48.87
2022-08-09T08:20:50.461Z,49.99
2022-08-09T08:21:52.604Z,49.64
2022-08-09T08:22:51.506Z,48.03
2022-08-09T08:23:56.046Z,47.69
2022-08-09T08:24:51.418Z,47.37
2022-08-09T08:26:06.112Z,46.23
2022-08-09T08:26:55.503Z,46.11
2022-08-09T08:27:51.452Z,45.46
2022-08-09T08:28:50.871Z,45.10
2022-08-09T08:29:52.442Z,45.20
2022-08-09T08:30:51.326Z,44.39
2022-08-09T08:32:03.667Z,45.18
2022-08-09T08:33:23.662Z,45.01
2022-08-09T08:33:52.527Z,44.98
2022-08-09T08:34:52.032Z,45.35
2022-08-09T08:35:58.356Z,45.54
2022-08-09T08:36:51.352Z,44.61
2022-08-09T08:37:59.425Z,44.10
2022-08-09T08:38:52.347Z,44.00
2022-08-09T08:39:50.373Z,44.47
2022-08-09T08:40:50.308Z,45.38
2022-08-09T08:41:52.347Z,45.13
2022-08-09T08:42:50.325Z,46.95
2022-08-09T08:43:50.918Z,45.40
2022-08-09T08:44:50.279Z,44.91
2022-08-09T08:45:51.427Z,44.61
2022-08-09T08:47:03.342Z,44.47
2022-08-09T08:47:51.261Z,43.98
2022-08-09T08:48:53.680Z,43.64
2022-08-09T08:49:50.251Z,43.32
2022-08-09T08:50:51.951Z,44.64
2022-08-09T08:52:01.665Z,45.76
2022-08-09T08:52:57.708Z,45.23
2022-08-09T08:54:03.428Z,44.76
2022-08-09T08:54:51.227Z,43.64
2022-08-09T08:55:52.652Z,42.83
2022-08-09T08:56:50.233Z,42.46
2022-08-09T08:57:56.315Z,42.85
2022-08-09T08:58:51.222Z,42.14
2022-08-09T08:59:51.034Z,42.83
2022-08-09T09:00:54.284Z,42.16
2022-08-09T09:01:52.678Z,42.76
2022-08-09T09:02:52.708Z,43.44
2022-08-09T09:03:50.538Z,43.96
2022-08-09T09:04:52.995Z,44.00
2022-08-09T09:06:00.393Z,44.07
2022-08-09T09:06:51.144Z,43.42
2022-08-09T09:07:50.175Z,42.02
2022-08-09T09:08:52.515Z,42.61
2022-08-09T09:10:01.877Z,42.44
2022-08-09T09:10:51.128Z,41.71
2022-08-09T09:11:50.097Z,41.04
2022-08-09T09:12:50.090Z,42.32
2022-08-09T09:13:56.743Z,40.82
2022-08-09T09:14:51.074Z,42.10
2022-08-09T09:15:52.040Z,41.90
2022-08-09T09:16:50.088Z,41.02
2022-08-09T09:17:52.625Z,40.33
2022-08-09T09:18:58.170Z,41.17
2022-08-09T09:19:52.056Z,41.09
2022-08-09T09:20:50.035Z,42.18
2022-08-09T09:21:50.038Z,42.82
2022-08-09T09:22:50.028Z,43.82
2022-08-09T09:23:58.113Z,43.31
2022-08-09T09:24:51.007Z,41.78
2022-08-09T09:26:05.065Z,42.87
2022-08-09T09:26:50.988Z,40.61
2022-08-09T09:28:05.014Z,41.96
2022-08-09T09:29:04.075Z,40.64
2022-08-09T09:30:12.316Z,40.96
2022-08-09T09:30:51.955Z,42.08
2022-08-09T09:32:03.605Z,40.92
2022-08-09T09:32:50.972Z,42.30
2022-08-09T09:33:56.905Z,40.56
2022-08-09T09:34:50.945Z,41.04
2022-08-09T09:36:00.506Z,40.47
2022-08-09T09:36:54.151Z,40.94
2022-08-09T09:37:49.915Z,39.84
2022-08-09T09:38:49.913Z,39.62
2022-08-09T09:39:55.379Z,39.52
2022-08-09T09:40:50.887Z,39.64
2022-08-09T09:41:50.901Z,39.11
2022-08-09T09:42:50.896Z,39.19
2022-08-09T09:44:10.706Z,38.09
2022-08-09T09:44:50.873Z,38.74
2022-08-09T09:45:57.595Z,40.78
2022-08-09T09:46:52.728Z,40.84
2022-08-09T09:47:58.283Z,40.94
2022-08-09T09:48:50.856Z,40.01
2022-08-09T09:50:13.687Z,38.70
2022-08-09T09:50:52.577Z,38.31
2022-08-09T09:51:51.366Z,39.21
2022-08-09T09:52:52.706Z,39.21
2022-08-09T09:54:02.141Z,38.82
2022-08-09T09:54:55.722Z,38.80
2022-08-09T09:55:57.626Z,37.90
2022-08-09T09:56:53.252Z,38.37
2022-08-09T09:58:04.218Z,38.60
2022-08-09T09:58:53.368Z,38.32
2022-08-09T09:59:52.084Z,38.62
2022-08-09T10:00:54.898Z,38.50
2022-08-09T10:01:50.744Z,38.72
2022-08-09T10:02:49.732Z,38.70
2022-08-09T10:03:57.169Z,37.85
2022-08-09T10:04:50.707Z,38.32
2022-08-09T10:06:00.858Z,37.99
2022-08-09T10:06:53.864Z,36.90
2022-08-09T10:08:11.305Z,37.80
2022-08-09T10:08:55.110Z,37.78
2022-08-09T10:09:54.721Z,37.29
2022-08-09T10:10:49.657Z,37.05
2022-08-09T10:12:01.278Z,38.83
2022-08-09T10:12:52.081Z,39.01
2022-08-09T10:13:50.411Z,39.07
2022-08-09T10:14:51.695Z,38.52
2022-08-09T10:16:08.904Z,37.21
2022-08-09T10:16:58.232Z,37.30
2022-08-09T10:17:56.196Z,37.23
2022-08-09T10:18:54.230Z,37.23
2022-08-09T10:19:52.861Z,37.15
2022-08-09T10:20:50.604Z,37.24
2022-08-09T10:21:49.730Z,37.23
2022-08-09T10:22:49.575Z,36.91
2022-08-09T10:23:49.605Z,36.42
2022-08-09T10:24:49.959Z,36.29
2022-08-09T10:26:07.794Z,35.57
2022-08-09T10:26:50.605Z,35.45
2022-08-09T10:27:57.122Z,36.98
2022-08-09T10:29:32.796Z,36.40
2022-08-09T10:30:30.059Z,36.30
2022-08-09T10:32:51.815Z,38.09
2022-08-09T10:34:08.451Z,38.18
2022-08-09T10:34:50.505Z,37.63
2022-08-09T10:35:49.513Z,36.52
2022-08-09T10:36:49.501Z,36.24
2022-08-09T10:37:49.479Z,35.99
2022-08-09T10:38:56.441Z,35.78
2022-08-09T10:39:50.592Z,36.44
2022-08-09T10:40:49.995Z,37.40
2022-08-09T10:41:50.089Z,38.28
2022-08-09T10:42:53.115Z,36.46
2022-08-09T10:43:58.670Z,37.23
2022-08-09T10:44:50.416Z,36.24
2022-08-09T10:46:00.076Z,36.72
2022-08-09T10:46:57.569Z,36.22
2022-08-09T10:48:13.220Z,35.83
2022-08-09T10:48:52.282Z,36.34
2022-08-09T10:49:54.173Z,36.62
2022-08-09T10:50:49.381Z,35.62
2022-08-09T10:51:49.356Z,35.99
2022-08-09T10:52:49.365Z,36.11
2022-08-09T10:53:54.145Z,35.54
2022-08-09T10:54:50.327Z,36.05
2022-08-09T10:55:58.905Z,37.13
2022-08-09T10:56:50.524Z,36.38
2022-08-09T10:57:51.823Z,36.08
2022-08-09T10:58:49.574Z,37.41
2022-08-09T10:59:57.685Z,37.99
2022-08-09T11:03:03.192Z,36.97
2022-08-09T11:03:11.318Z,37.03
2022-08-09T11:03:15.527Z,36.77
2022-08-09T11:03:53.803Z,36.30
2022-08-09T11:04:55.494Z,35.58
2022-08-09T11:06:00.045Z,34.38
2022-08-09T11:06:50.245Z,33.34
2022-08-09T11:07:56.851Z,33.51
2022-08-09T11:08:53.143Z,33.30
2022-08-09T11:09:49.227Z,33.20
2022-08-09T11:10:54.841Z,33.01
2022-08-09T11:11:51.891Z,32.14
2022-08-09T11:12:49.221Z,33.43
2022-08-09T11:13:54.510Z,33.45
2022-08-09T11:14:50.183Z,36.21
2022-08-09T11:15:50.974Z,35.57
2022-08-09T11:16:50.188Z,37.73
2022-08-09T11:17:53.298Z,37.95
2022-08-09T11:18:50.185Z,36.43
2022-08-09T11:20:12.027Z,38.10
2022-08-09T11:20:50.180Z,36.69
2022-08-09T11:21:56.871Z,36.57
2022-08-09T11:22:56.731Z,36.87
2022-08-09T11:23:50.166Z,36.77
2022-08-09T11:24:50.161Z,36.99
2022-08-09T11:25:49.415Z,36.45
2022-08-09T11:26:54.555Z,36.92
2022-08-09T11:28:04.977Z,37.12
2022-08-09T11:28:56.542Z,36.59
2022-08-09T11:30:06.346Z,36.47
2022-08-09T11:30:50.237Z,36.34
2022-08-09T11:31:52.559Z,35.72
2022-08-09T11:32:49.137Z,36.18
2022-08-09T11:33:51.135Z,36.65
2022-08-09T11:34:51.542Z,35.77
2022-08-09T11:35:51.900Z,36.40
2022-08-09T11:36:49.045Z,36.18
2022-08-09T11:37:49.865Z,36.08
2022-08-09T11:38:49.025Z,36.34
2022-08-09T11:39:49.148Z,35.44
2022-08-09T11:40:49.012Z,35.41
2022-08-09T11:41:50.066Z,35.13
2022-08-09T11:42:49.006Z,36.07
2022-08-09T11:43:49.290Z,36.88
2022-08-09T11:44:48.968Z,36.90
2022-08-09T11:45:48.961Z,36.84
2022-08-09T11:46:49.112Z,36.92
2022-08-09T11:47:48.964Z,35.80
2022-08-09T11:48:48.937Z,35.66
2022-08-09T11:50:53.960Z,35.24
2022-08-09T11:50:54.037Z,35.75
2022-08-09T11:53:01.111Z,36.11
2022-08-09T11:53:03.081Z,34.80
2022-08-09T11:54:00.351Z,34.39
2022-08-09T11:54:50.930Z,34.38
2022-08-09T11:55:53.750Z,33.79
2022-08-09T11:56:49.874Z,34.08
2022-08-09T11:58:02.133Z,34.41
2022-08-09T11:58:50.392Z,35.49
2022-08-09T11:59:52.338Z,35.50
2022-08-09T12:00:49.917Z,35.02
2022-08-09T12:02:15.926Z,35.23
2022-08-09T12:02:52.403Z,35.42
2022-08-09T12:03:57.370Z,35.23
2022-08-09T12:04:49.873Z,35.62
2022-08-09T12:05:48.844Z,34.15
2022-08-09T12:06:49.181Z,35.70
2022-08-09T12:07:49.819Z,35.93
2022-08-09T12:08:48.878Z,35.47
2022-08-09T12:09:50.263Z,36.02
2022-08-09T12:10:48.816Z,37.51
2022-08-09T12:12:03.598Z,37.28
2022-08-09T12:12:52.709Z,36.49
2022-08-09T12:14:09.252Z,36.79
2022-08-09T12:15:07.302Z,36.88
2022-08-09T12:15:52.427Z,36.67
2022-08-09T12:16:48.772Z,35.87
2022-08-09T12:17:53.371Z,35.75
2022-08-09T12:18:53.934Z,36.95
2022-08-09T12:19:50.682Z,35.75
2022-08-09T12:20:48.733Z,35.34
2022-08-09T12:21:51.042Z,35.06
2022-08-09T12:22:50.138Z,35.74
2022-08-09T12:24:02.819Z,35.66
2022-08-09T12:24:49.709Z,34.46
2022-08-09T12:25:49.526Z,34.64
2022-08-09T12:28:59.752Z,35.72
2022-08-09T12:29:00.149Z,34.51
2022-08-09T12:29:13.811Z,36.04
2022-08-09T12:29:54.039Z,35.99
2022-08-09T12:30:49.657Z,34.67
2022-08-09T12:32:02.627Z,33.95
2022-08-09T12:32:50.520Z,33.05
2022-08-09T12:33:59.442Z,33.14
2022-08-09T12:34:49.614Z,33.22
2022-08-09T12:35:48.666Z,32.42
2022-08-09T12:36:48.673Z,33.41
2022-08-09T12:37:51.756Z,33.41
2022-08-09T12:38:48.589Z,32.20
2022-08-09T12:39:48.661Z,32.78
2022-08-09T12:40:48.594Z,32.42
2022-08-09T12:41:48.602Z,33.43
2022-08-09T12:42:50.184Z,34.93
2022-08-09T12:44:05.258Z,35.49
2022-08-09T12:44:52.395Z,36.30
2022-08-09T12:45:59.559Z,34.10
2022-08-09T12:46:50.067Z,35.67
2022-08-09T12:47:50.282Z,35.00
2022-08-09T12:48:50.526Z,36.08
2022-08-09T12:49:51.268Z,35.88
2022-08-09T12:50:48.521Z,36.07
2022-08-09T12:52:00.537Z,36.54
2022-08-09T12:53:07.869Z,36.42
2022-08-09T12:53:52.994Z,35.82
2022-08-09T12:56:10.708Z,35.72
2022-08-09T12:56:14.198Z,35.72
2022-08-09T12:56:51.149Z,35.33
2022-08-09T12:57:48.483Z,35.16
2022-08-09T12:58:52.417Z,35.88
2022-08-09T13:00:03.102Z,35.57
2022-08-09T13:00:49.540Z,35.18
2022-08-09T13:01:49.774Z,35.75
2022-08-09T13:02:48.443Z,35.75
2022-08-09T13:03:53.665Z,35.26
2022-08-09T13:04:49.420Z,35.54
2022-08-09T13:06:11.372Z,35.36
2022-08-09T13:06:49.404Z,35.75
2022-08-09T13:07:50.925Z,35.75
2022-08-09T13:08:49.270Z,35.57
2022-08-09T13:09:55.268Z,35.46
2022-08-09T13:10:52.306Z,35.26
2022-08-09T13:11:48.359Z,35.14
2022-08-09T13:13:09.559Z,35.02
2022-08-09T13:14:41.636Z,33.94
2022-08-09T13:14:53.756Z,34.39
2022-08-09T13:15:50.357Z,33.10
2022-08-09T13:16:48.338Z,33.61
2022-08-09T13:18:04.945Z,34.25
2022-08-09T13:18:49.366Z,36.36
2022-08-09T13:20:10.365Z,35.99
2022-08-09T13:21:03.976Z,35.51
2022-08-09T13:22:35.771Z,35.49
2022-08-09T13:23:05.638Z,35.49
2022-08-09T13:24:16.068Z,35.78
2022-08-09T13:24:54.103Z,35.61
2022-08-09T13:25:53.256Z,35.82
2022-08-09T13:26:49.759Z,35.77
2022-08-09T13:27:55.665Z,35.85
2022-08-09T13:28:50.033Z,35.30
2022-08-09T13:30:04.150Z,35.30
2022-08-09T13:32:15.194Z,35.95
2022-08-09T13:32:19.338Z,34.75
2022-08-09T13:32:49.233Z,34.15
2022-08-09T13:33:52.463Z,34.20